Terminal Aerodrome Forecast
Issued by NWS

Home | Current Version | Previous Version | Text Only | Print | Product List | Glossary On
Versions: 1 2 3 4 5 6 7 8 9 10 11 12
000
FTUS45 KABQ 011737
TAFLVS
TAF
KLVS 011737Z 0118/0218 15008KT P6SM SCT150
     FM012000 15010KT P6SM VCSH SCT070 BKN120
      TEMPO 0121/0124 VRB20G30KT 6SM -TSRA BKN070CB
     FM020000 04011KT P6SM VCSH BKN070
     FM020500 08007KT P6SM BKN090=

USA.gov is the U.S. government's official web portal to all federal, state and local government web resources and services.